sensor_id;sensor_type;location;lat;lon;timestamp;P1;durP1;ratioP1;P2;durP2;ratioP2
65096;SDS011;51686;46.758;4.356;2023-04-07T00:01:44;8.13;;;4.13;;
65096;SDS011;51686;46.758;4.356;2023-04-07T00:04:31;8.52;;;4.30;;
65096;SDS011;51686;46.758;4.356;2023-04-07T00:07:18;8.75;;;4.40;;
65096;SDS011;51686;46.758;4.356;2023-04-07T00:10:05;9.93;;;4.65;;
65096;SDS011;51686;46.758;4.356;2023-04-07T00:12:53;8.85;;;4.15;;
65096;SDS011;51686;46.758;4.356;2023-04-07T00:15:40;8.68;;;4.15;;
65096;SDS011;51686;46.758;4.356;2023-04-07T00:18:27;8.60;;;4.20;;
65096;SDS011;51686;46.758;4.356;2023-04-07T00:21:13;8.57;;;4.70;;
65096;SDS011;51686;46.758;4.356;2023-04-07T00:24:00;7.70;;;4.15;;
65096;SDS011;51686;46.758;4.356;2023-04-07T00:26:47;10.02;;;4.97;;
65096;SDS011;51686;46.758;4.356;2023-04-07T00:29:34;8.77;;;4.40;;
65096;SDS011;51686;46.758;4.356;2023-04-07T00:32:21;8.48;;;4.30;;
65096;SDS011;51686;46.758;4.356;2023-04-07T00:35:08;9.00;;;4.22;;
65096;SDS011;51686;46.758;4.356;2023-04-07T00:37:55;9.70;;;4.53;;
65096;SDS011;51686;46.758;4.356;2023-04-07T00:40:42;9.30;;;4.55;;
65096;SDS011;51686;46.758;4.356;2023-04-07T00:43:29;9.50;;;4.80;;
65096;SDS011;51686;46.758;4.356;2023-04-07T00:46:16;9.27;;;4.45;;
65096;SDS011;51686;46.758;4.356;2023-04-07T00:49:04;8.45;;;4.10;;
65096;SDS011;51686;46.758;4.356;2023-04-07T00:51:53;8.65;;;4.32;;
65096;SDS011;51686;46.758;4.356;2023-04-07T00:54:41;9.23;;;4.67;;
65096;SDS011;51686;46.758;4.356;2023-04-07T00:57:28;9.18;;;4.50;;
65096;SDS011;51686;46.758;4.356;2023-04-07T01:00:15;8.77;;;4.78;;
65096;SDS011;51686;46.758;4.356;2023-04-07T01:03:07;9.32;;;4.47;;
65096;SDS011;51686;46.758;4.356;2023-04-07T01:06:04;8.70;;;4.47;;
65096;SDS011;51686;46.758;4.356;2023-04-07T01:09:09;8.18;;;4.30;;
65096;SDS011;51686;46.758;4.356;2023-04-07T01:12:17;9.95;;;4.47;;
65096;SDS011;51686;46.758;4.356;2023-04-07T01:15:08;8.23;;;4.10;;
65096;SDS011;51686;46.758;4.356;2023-04-07T01:18:02;9.45;;;5.00;;
65096;SDS011;51686;46.758;4.356;2023-04-07T01:21:03;9.32;;;4.45;;
65096;SDS011;51686;46.758;4.356;2023-04-07T01:27:17;8.10;;;4.03;;
65096;SDS011;51686;46.758;4.356;2023-04-07T01:30:10;10.60;;;4.82;;
65096;SDS011;51686;46.758;4.356;2023-04-07T01:32:59;8.73;;;4.30;;
65096;SDS011;51686;46.758;4.356;2023-04-07T01:35:46;8.52;;;4.00;;
65096;SDS011;51686;46.758;4.356;2023-04-07T01:38:34;8.85;;;4.20;;
65096;SDS011;51686;46.758;4.356;2023-04-07T01:41:22;8.85;;;4.47;;
65096;SDS011;51686;46.758;4.356;2023-04-07T01:44:09;8.00;;;4.15;;
65096;SDS011;51686;46.758;4.356;2023-04-07T01:46:57;8.40;;;4.45;;
65096;SDS011;51686;46.758;4.356;2023-04-07T01:49:45;9.63;;;4.43;;
65096;SDS011;51686;46.758;4.356;2023-04-07T01:52:32;9.77;;;4.30;;
65096;SDS011;51686;46.758;4.356;2023-04-07T01:55:20;8.10;;;4.30;;
65096;SDS011;51686;46.758;4.356;2023-04-07T01:58:08;9.07;;;4.18;;
65096;SDS011;51686;46.758;4.356;2023-04-07T02:00:57;9.32;;;4.47;;
65096;SDS011;51686;46.758;4.356;2023-04-07T02:03:46;8.57;;;4.68;;
65096;SDS011;51686;46.758;4.356;2023-04-07T02:06:58;8.20;;;4.00;;
65096;SDS011;51686;46.758;4.356;2023-04-07T02:09:45;8.82;;;4.80;;
65096;SDS011;51686;46.758;4.356;2023-04-07T02:12:33;7.63;;;4.10;;
65096;SDS011;51686;46.758;4.356;2023-04-07T02:15:27;9.25;;;4.30;;
65096;SDS011;51686;46.758;4.356;2023-04-07T02:18:14;9.00;;;4.35;;
65096;SDS011;51686;46.758;4.356;2023-04-07T02:21:02;9.07;;;4.50;;
65096;SDS011;51686;46.758;4.356;2023-04-07T02:23:50;9.20;;;4.35;;
65096;SDS011;51686;46.758;4.356;2023-04-07T02:26:37;8.70;;;4.20;;
65096;SDS011;51686;46.758;4.356;2023-04-07T02:29:24;9.25;;;4.28;;
65096;SDS011;51686;46.758;4.356;2023-04-07T02:32:11;8.43;;;4.43;;
65096;SDS011;51686;46.758;4.356;2023-04-07T02:34:58;10.10;;;4.72;;
65096;SDS011;51686;46.758;4.356;2023-04-07T02:37:45;8.18;;;3.95;;
65096;SDS011;51686;46.758;4.356;2023-04-07T02:40:32;9.38;;;4.13;;
65096;SDS011;51686;46.758;4.356;2023-04-07T02:43:19;9.05;;;4.25;;
65096;SDS011;51686;46.758;4.356;2023-04-07T02:46:06;8.20;;;4.10;;
65096;SDS011;51686;46.758;4.356;2023-04-07T02:48:54;8.88;;;4.10;;
65096;SDS011;51686;46.758;4.356;2023-04-07T02:51:44;8.38;;;4.13;;
65096;SDS011;51686;46.758;4.356;2023-04-07T02:54:32;8.50;;;4.00;;
65096;SDS011;51686;46.758;4.356;2023-04-07T02:57:19;8.38;;;4.18;;
65096;SDS011;51686;46.758;4.356;2023-04-07T03:00:06;8.65;;;4.03;;
65096;SDS011;51686;46.758;4.356;2023-04-07T03:02:53;9.27;;;4.18;;
65096;SDS011;51686;46.758;4.356;2023-04-07T03:05:41;8.55;;;4.28;;
65096;SDS011;51686;46.758;4.356;2023-04-07T03:08:28;9.73;;;4.78;;
65096;SDS011;51686;46.758;4.356;2023-04-07T03:11:14;8.23;;;4.43;;
65096;SDS011;51686;46.758;4.356;2023-04-07T03:14:01;8.43;;;4.30;;
65096;SDS011;51686;46.758;4.356;2023-04-07T03:16:48;8.65;;;4.32;;
65096;SDS011;51686;46.758;4.356;2023-04-07T03:19:35;8.73;;;4.03;;
65096;SDS011;51686;46.758;4.356;2023-04-07T03:22:22;9.05;;;4.40;;
65096;SDS011;51686;46.758;4.356;2023-04-07T03:25:09;8.70;;;4.30;;
65096;SDS011;51686;46.758;4.356;2023-04-07T03:27:56;7.63;;;3.75;;
65096;SDS011;51686;46.758;4.356;2023-04-07T03:30:43;8.38;;;4.13;;
65096;SDS011;51686;46.758;4.356;2023-04-07T03:33:30;8.65;;;4.30;;
65096;SDS011;51686;46.758;4.356;2023-04-07T03:36:17;8.73;;;4.18;;
65096;SDS011;51686;46.758;4.356;2023-04-07T03:39:04;8.13;;;4.10;;
65096;SDS011;51686;46.758;4.356;2023-04-07T03:41:51;8.75;;;4.20;;
65096;SDS011;51686;46.758;4.356;2023-04-07T03:44:38;9.32;;;4.10;;
65096;SDS011;51686;46.758;4.356;2023-04-07T03:47:25;8.27;;;4.00;;
65096;SDS011;51686;46.758;4.356;2023-04-07T03:50:12;7.88;;;3.80;;
65096;SDS011;51686;46.758;4.356;2023-04-07T03:52:59;9.20;;;4.05;;
65096;SDS011;51686;46.758;4.356;2023-04-07T03:55:46;8.48;;;3.97;;
65096;SDS011;51686;46.758;4.356;2023-04-07T03:58:33;7.97;;;3.92;;
65096;SDS011;51686;46.758;4.356;2023-04-07T04:01:20;8.45;;;3.90;;
65096;SDS011;51686;46.758;4.356;2023-04-07T04:04:07;9.50;;;4.20;;
65096;SDS011;51686;46.758;4.356;2023-04-07T04:06:54;9.40;;;4.10;;
65096;SDS011;51686;46.758;4.356;2023-04-07T04:09:41;8.98;;;3.90;;
65096;SDS011;51686;46.758;4.356;2023-04-07T04:12:28;8.23;;;4.20;;
65096;SDS011;51686;46.758;4.356;2023-04-07T04:15:15;8.07;;;3.90;;
65096;SDS011;51686;46.758;4.356;2023-04-07T04:18:02;8.93;;;4.07;;
65096;SDS011;51686;46.758;4.356;2023-04-07T04:20:49;9.07;;;4.13;;
65096;SDS011;51686;46.758;4.356;2023-04-07T04:23:36;7.95;;;3.85;;
65096;SDS011;51686;46.758;4.356;2023-04-07T04:26:22;8.55;;;4.05;;
65096;SDS011;51686;46.758;4.356;2023-04-07T04:31:59;8.52;;;3.80;;
65096;SDS011;51686;46.758;4.356;2023-04-07T04:34:45;7.97;;;3.70;;
65096;SDS011;51686;46.758;4.356;2023-04-07T04:37:32;8.05;;;3.90;;
65096;SDS011;51686;46.758;4.356;2023-04-07T04:40:20;9.43;;;3.83;;
65096;SDS011;51686;46.758;4.356;2023-04-07T04:43:07;9.20;;;3.80;;
65096;SDS011;51686;46.758;4.356;2023-04-07T04:45:55;7.90;;;3.88;;
65096;SDS011;51686;46.758;4.356;2023-04-07T04:48:42;8.27;;;3.92;;
65096;SDS011;51686;46.758;4.356;2023-04-07T04:51:29;8.25;;;4.20;;
65096;SDS011;51686;46.758;4.356;2023-04-07T04:54:17;7.90;;;3.90;;
65096;SDS011;51686;46.758;4.356;2023-04-07T04:57:04;8.67;;;3.77;;
65096;SDS011;51686;46.758;4.356;2023-04-07T04:59:51;8.38;;;4.05;;
65096;SDS011;51686;46.758;4.356;2023-04-07T05:02:38;9.00;;;3.80;;
65096;SDS011;51686;46.758;4.356;2023-04-07T05:05:25;8.25;;;3.72;;
65096;SDS011;51686;46.758;4.356;2023-04-07T05:08:18;8.23;;;3.83;;
65096;SDS011;51686;46.758;4.356;2023-04-07T05:11:04;8.32;;;3.85;;
65096;SDS011;51686;46.758;4.356;2023-04-07T05:13:51;8.55;;;3.72;;
65096;SDS011;51686;46.758;4.356;2023-04-07T05:16:39;8.20;;;3.50;;
65096;SDS011;51686;46.758;4.356;2023-04-07T05:19:26;8.10;;;3.92;;
65096;SDS011;51686;46.758;4.356;2023-04-07T05:22:15;8.07;;;4.10;;
65096;SDS011;51686;46.758;4.356;2023-04-07T05:25:03;7.80;;;4.00;;
65096;SDS011;51686;46.758;4.356;2023-04-07T05:27:50;7.85;;;3.72;;
65096;SDS011;51686;46.758;4.356;2023-04-07T05:30:37;9.05;;;3.97;;
65096;SDS011;51686;46.758;4.356;2023-04-07T05:33:24;8.85;;;4.20;;
65096;SDS011;51686;46.758;4.356;2023-04-07T05:36:11;8.95;;;3.92;;
65096;SDS011;51686;46.758;4.356;2023-04-07T05:38:58;9.18;;;4.07;;
65096;SDS011;51686;46.758;4.356;2023-04-07T05:41:45;8.70;;;4.03;;
65096;SDS011;51686;46.758;4.356;2023-04-07T05:44:32;8.32;;;3.85;;
65096;SDS011;51686;46.758;4.356;2023-04-07T05:47:19;8.32;;;4.38;;
65096;SDS011;51686;46.758;4.356;2023-04-07T05:50:06;9.68;;;4.38;;
65096;SDS011;51686;46.758;4.356;2023-04-07T05:52:53;8.88;;;4.18;;
65096;SDS011;51686;46.758;4.356;2023-04-07T05:55:42;9.60;;;4.30;;
65096;SDS011;51686;46.758;4.356;2023-04-07T05:58:29;8.38;;;4.40;;
65096;SDS011;51686;46.758;4.356;2023-04-07T06:01:16;9.02;;;4.22;;
65096;SDS011;51686;46.758;4.356;2023-04-07T06:04:03;9.23;;;4.60;;
65096;SDS011;51686;46.758;4.356;2023-04-07T06:06:50;9.40;;;4.45;;
65096;SDS011;51686;46.758;4.356;2023-04-07T06:09:40;10.40;;;4.82;;
65096;SDS011;51686;46.758;4.356;2023-04-07T06:12:28;9.43;;;4.72;;
65096;SDS011;51686;46.758;4.356;2023-04-07T06:15:15;8.90;;;4.65;;
65096;SDS011;51686;46.758;4.356;2023-04-07T06:18:02;9.45;;;4.40;;
65096;SDS011;51686;46.758;4.356;2023-04-07T06:20:49;8.40;;;4.40;;
65096;SDS011;51686;46.758;4.356;2023-04-07T06:23:36;8.82;;;4.20;;
65096;SDS011;51686;46.758;4.356;2023-04-07T06:26:23;8.48;;;4.60;;
65096;SDS011;51686;46.758;4.356;2023-04-07T06:29:10;8.02;;;3.90;;
65096;SDS011;51686;46.758;4.356;2023-04-07T06:31:57;9.10;;;4.40;;
65096;SDS011;51686;46.758;4.356;2023-04-07T06:34:44;8.48;;;4.32;;
65096;SDS011;51686;46.758;4.356;2023-04-07T06:37:31;8.85;;;4.40;;
65096;SDS011;51686;46.758;4.356;2023-04-07T06:40:18;8.40;;;4.50;;
65096;SDS011;51686;46.758;4.356;2023-04-07T06:43:05;8.75;;;4.30;;
65096;SDS011;51686;46.758;4.356;2023-04-07T06:45:52;8.63;;;4.53;;
65096;SDS011;51686;46.758;4.356;2023-04-07T06:48:39;8.68;;;4.38;;
65096;SDS011;51686;46.758;4.356;2023-04-07T06:51:26;8.65;;;4.47;;
65096;SDS011;51686;46.758;4.356;2023-04-07T06:54:13;9.30;;;4.50;;
65096;SDS011;51686;46.758;4.356;2023-04-07T06:57:00;10.13;;;4.70;;
65096;SDS011;51686;46.758;4.356;2023-04-07T06:59:48;8.63;;;4.30;;
65096;SDS011;51686;46.758;4.356;2023-04-07T07:02:36;9.77;;;4.55;;
65096;SDS011;51686;46.758;4.356;2023-04-07T07:05:24;8.55;;;4.60;;
65096;SDS011;51686;46.758;4.356;2023-04-07T07:08:11;8.75;;;4.43;;
65096;SDS011;51686;46.758;4.356;2023-04-07T07:10:58;9.65;;;4.57;;
65096;SDS011;51686;46.758;4.356;2023-04-07T07:13:44;8.40;;;4.25;;
65096;SDS011;51686;46.758;4.356;2023-04-07T07:16:32;9.82;;;4.90;;
65096;SDS011;51686;46.758;4.356;2023-04-07T07:19:19;8.95;;;4.38;;
65096;SDS011;51686;46.758;4.356;2023-04-07T07:22:06;9.25;;;4.70;;
65096;SDS011;51686;46.758;4.356;2023-04-07T07:24:53;9.25;;;4.63;;
65096;SDS011;51686;46.758;4.356;2023-04-07T07:27:39;8.85;;;4.45;;
65096;SDS011;51686;46.758;4.356;2023-04-07T07:30:26;9.15;;;4.65;;
65096;SDS011;51686;46.758;4.356;2023-04-07T07:33:13;9.35;;;4.32;;
65096;SDS011;51686;46.758;4.356;2023-04-07T07:36:01;9.38;;;4.75;;
65096;SDS011;51686;46.758;4.356;2023-04-07T07:38:49;9.98;;;5.10;;
65096;SDS011;51686;46.758;4.356;2023-04-07T07:41:36;9.32;;;4.78;;
65096;SDS011;51686;46.758;4.356;2023-04-07T07:44:23;9.02;;;4.70;;
65096;SDS011;51686;46.758;4.356;2023-04-07T07:47:10;9.23;;;4.60;;
65096;SDS011;51686;46.758;4.356;2023-04-07T07:49:58;9.20;;;4.60;;
65096;SDS011;51686;46.758;4.356;2023-04-07T07:52:44;10.02;;;4.80;;
65096;SDS011;51686;46.758;4.356;2023-04-07T07:55:33;9.50;;;4.53;;
65096;SDS011;51686;46.758;4.356;2023-04-07T07:58:20;8.70;;;4.38;;
65096;SDS011;51686;46.758;4.356;2023-04-07T08:01:07;10.80;;;5.07;;
65096;SDS011;51686;46.758;4.356;2023-04-07T08:03:54;8.90;;;4.80;;
65096;SDS011;51686;46.758;4.356;2023-04-07T08:06:41;9.95;;;4.95;;
65096;SDS011;51686;46.758;4.356;2023-04-07T08:09:28;9.45;;;4.72;;
65096;SDS011;51686;46.758;4.356;2023-04-07T08:12:15;9.57;;;4.78;;
65096;SDS011;51686;46.758;4.356;2023-04-07T08:15:02;9.57;;;4.72;;
65096;SDS011;51686;46.758;4.356;2023-04-07T08:17:50;10.30;;;5.28;;
65096;SDS011;51686;46.758;4.356;2023-04-07T08:20:38;9.38;;;4.60;;
65096;SDS011;51686;46.758;4.356;2023-04-07T08:23:26;9.52;;;4.88;;
65096;SDS011;51686;46.758;4.356;2023-04-07T08:26:13;8.68;;;4.30;;
65096;SDS011;51686;46.758;4.356;2023-04-07T08:29:00;11.10;;;4.88;;
65096;SDS011;51686;46.758;4.356;2023-04-07T08:31:47;9.52;;;4.82;;
65096;SDS011;51686;46.758;4.356;2023-04-07T08:34:33;8.95;;;4.75;;
65096;SDS011;51686;46.758;4.356;2023-04-07T08:37:20;11.13;;;5.25;;
65096;SDS011;51686;46.758;4.356;2023-04-07T08:40:07;8.82;;;4.60;;
65096;SDS011;51686;46.758;4.356;2023-04-07T08:42:55;9.23;;;4.80;;
65096;SDS011;51686;46.758;4.356;2023-04-07T08:45:43;10.32;;;4.80;;
65096;SDS011;51686;46.758;4.356;2023-04-07T08:48:32;9.73;;;4.47;;
65096;SDS011;51686;46.758;4.356;2023-04-07T08:51:23;9.38;;;4.75;;
65096;SDS011;51686;46.758;4.356;2023-04-07T08:54:16;9.57;;;5.00;;
65096;SDS011;51686;46.758;4.356;2023-04-07T08:57:04;10.77;;;5.28;;
65096;SDS011;51686;46.758;4.356;2023-04-07T08:59:51;10.30;;;5.18;;
65096;SDS011;51686;46.758;4.356;2023-04-07T09:02:39;9.77;;;5.30;;
65096;SDS011;51686;46.758;4.356;2023-04-07T09:05:34;11.00;;;5.07;;
65096;SDS011;51686;46.758;4.356;2023-04-07T09:08:21;9.50;;;4.90;;
65096;SDS011;51686;46.758;4.356;2023-04-07T09:11:08;10.32;;;5.03;;
65096;SDS011;51686;46.758;4.356;2023-04-07T09:13:55;10.02;;;4.65;;
65096;SDS011;51686;46.758;4.356;2023-04-07T09:16:42;11.50;;;5.95;;
65096;SDS011;51686;46.758;4.356;2023-04-07T09:19:29;10.57;;;5.40;;
65096;SDS011;51686;46.758;4.356;2023-04-07T09:22:32;10.88;;;5.22;;
65096;SDS011;51686;46.758;4.356;2023-04-07T09:25:27;10.88;;;5.68;;
65096;SDS011;51686;46.758;4.356;2023-04-07T09:28:15;10.15;;;4.97;;
65096;SDS011;51686;46.758;4.356;2023-04-07T09:31:02;9.88;;;5.25;;
65096;SDS011;51686;46.758;4.356;2023-04-07T09:33:49;9.63;;;5.13;;
65096;SDS011;51686;46.758;4.356;2023-04-07T09:36:40;10.75;;;5.75;;
65096;SDS011;51686;46.758;4.356;2023-04-07T09:39:27;10.52;;;5.55;;
65096;SDS011;51686;46.758;4.356;2023-04-07T09:42:15;10.38;;;5.32;;
65096;SDS011;51686;46.758;4.356;2023-04-07T09:45:02;12.27;;;6.28;;
65096;SDS011;51686;46.758;4.356;2023-04-07T09:47:49;11.13;;;6.03;;
65096;SDS011;51686;46.758;4.356;2023-04-07T09:50:39;11.00;;;5.87;;
65096;SDS011;51686;46.758;4.356;2023-04-07T09:56:36;11.57;;;5.93;;
65096;SDS011;51686;46.758;4.356;2023-04-07T09:59:23;11.07;;;5.82;;
65096;SDS011;51686;46.758;4.356;2023-04-07T10:02:11;11.17;;;6.30;;
65096;SDS011;51686;46.758;4.356;2023-04-07T10:04:58;11.55;;;6.10;;
65096;SDS011;51686;46.758;4.356;2023-04-07T10:07:45;10.90;;;5.60;;
65096;SDS011;51686;46.758;4.356;2023-04-07T10:10:33;11.40;;;5.72;;
65096;SDS011;51686;46.758;4.356;2023-04-07T10:13:24;11.90;;;6.25;;
65096;SDS011;51686;46.758;4.356;2023-04-07T10:16:11;11.60;;;6.45;;
65096;SDS011;51686;46.758;4.356;2023-04-07T10:18:58;12.60;;;6.57;;
65096;SDS011;51686;46.758;4.356;2023-04-07T10:21:45;11.10;;;6.45;;
65096;SDS011;51686;46.758;4.356;2023-04-07T10:24:45;12.18;;;6.18;;
65096;SDS011;51686;46.758;4.356;2023-04-07T10:27:51;11.55;;;6.57;;
65096;SDS011;51686;46.758;4.356;2023-04-07T10:30:40;12.50;;;6.80;;
65096;SDS011;51686;46.758;4.356;2023-04-07T10:36:35;11.98;;;6.63;;
65096;SDS011;51686;46.758;4.356;2023-04-07T10:39:22;12.07;;;6.68;;
65096;SDS011;51686;46.758;4.356;2023-04-07T10:48:37;10.68;;;5.43;;
65096;SDS011;51686;46.758;4.356;2023-04-07T10:51:24;10.60;;;5.57;;
65096;SDS011;51686;46.758;4.356;2023-04-07T10:54:15;11.70;;;6.28;;
65096;SDS011;51686;46.758;4.356;2023-04-07T10:57:10;11.57;;;6.30;;
65096;SDS011;51686;46.758;4.356;2023-04-07T11:05:44;10.77;;;5.60;;
65096;SDS011;51686;46.758;4.356;2023-04-07T11:08:32;11.23;;;6.15;;
65096;SDS011;51686;46.758;4.356;2023-04-07T11:11:36;12.02;;;6.30;;
65096;SDS011;51686;46.758;4.356;2023-04-07T11:14:27;11.25;;;6.00;;
65096;SDS011;51686;46.758;4.356;2023-04-07T11:17:16;10.65;;;5.63;;
65096;SDS011;51686;46.758;4.356;2023-04-07T11:20:03;12.05;;;6.63;;
65096;SDS011;51686;46.758;4.356;2023-04-07T11:22:59;11.05;;;6.05;;
65096;SDS011;51686;46.758;4.356;2023-04-07T11:25:46;11.38;;;6.03;;
65096;SDS011;51686;46.758;4.356;2023-04-07T11:28:34;10.88;;;5.93;;
65096;SDS011;51686;46.758;4.356;2023-04-07T11:31:24;12.88;;;6.40;;
65096;SDS011;51686;46.758;4.356;2023-04-07T11:34:11;11.35;;;5.68;;
65096;SDS011;51686;46.758;4.356;2023-04-07T11:40:29;10.70;;;5.57;;
65096;SDS011;51686;46.758;4.356;2023-04-07T11:43:26;11.57;;;6.00;;
65096;SDS011;51686;46.758;4.356;2023-04-07T11:46:14;11.38;;;5.68;;
65096;SDS011;51686;46.758;4.356;2023-04-07T11:49:12;11.15;;;5.75;;
65096;SDS011;51686;46.758;4.356;2023-04-07T11:52:02;11.95;;;5.97;;
65096;SDS011;51686;46.758;4.356;2023-04-07T11:54:51;11.02;;;5.63;;
65096;SDS011;51686;46.758;4.356;2023-04-07T11:57:38;11.93;;;6.25;;
65096;SDS011;51686;46.758;4.356;2023-04-07T12:00:25;11.02;;;5.88;;
65096;SDS011;51686;46.758;4.356;2023-04-07T12:03:12;10.63;;;5.72;;
65096;SDS011;51686;46.758;4.356;2023-04-07T12:06:03;11.13;;;5.82;;
65096;SDS011;51686;46.758;4.356;2023-04-07T12:08:51;11.60;;;6.05;;
65096;SDS011;51686;46.758;4.356;2023-04-07T12:11:47;11.55;;;6.30;;
65096;SDS011;51686;46.758;4.356;2023-04-07T12:14:35;11.45;;;5.97;;
65096;SDS011;51686;46.758;4.356;2023-04-07T12:17:23;11.32;;;6.45;;
65096;SDS011;51686;46.758;4.356;2023-04-07T12:20:10;11.40;;;6.40;;
65096;SDS011;51686;46.758;4.356;2023-04-07T12:22:57;11.43;;;6.40;;
65096;SDS011;51686;46.758;4.356;2023-04-07T12:25:45;11.68;;;6.35;;
65096;SDS011;51686;46.758;4.356;2023-04-07T12:28:33;11.85;;;6.53;;
65096;SDS011;51686;46.758;4.356;2023-04-07T12:31:20;11.93;;;6.15;;
65096;SDS011;51686;46.758;4.356;2023-04-07T12:34:07;11.50;;;6.38;;
65096;SDS011;51686;46.758;4.356;2023-04-07T12:36:54;11.95;;;6.82;;
65096;SDS011;51686;46.758;4.356;2023-04-07T12:39:40;11.02;;;5.90;;
65096;SDS011;51686;46.758;4.356;2023-04-07T12:42:28;11.88;;;6.13;;
65096;SDS011;51686;46.758;4.356;2023-04-07T12:45:15;11.65;;;6.80;;
65096;SDS011;51686;46.758;4.356;2023-04-07T12:48:01;11.07;;;5.90;;
65096;SDS011;51686;46.758;4.356;2023-04-07T12:50:48;12.10;;;6.53;;
65096;SDS011;51686;46.758;4.356;2023-04-07T12:53:35;11.70;;;6.60;;
65096;SDS011;51686;46.758;4.356;2023-04-07T12:56:22;11.10;;;6.05;;
65096;SDS011;51686;46.758;4.356;2023-04-07T12:59:09;11.80;;;6.45;;
65096;SDS011;51686;46.758;4.356;2023-04-07T13:01:57;10.27;;;5.60;;
65096;SDS011;51686;46.758;4.356;2023-04-07T13:04:44;11.68;;;6.53;;
65096;SDS011;51686;46.758;4.356;2023-04-07T13:07:32;11.60;;;5.97;;
65096;SDS011;51686;46.758;4.356;2023-04-07T13:10:20;11.67;;;5.80;;
65096;SDS011;51686;46.758;4.356;2023-04-07T13:13:07;11.60;;;6.40;;
65096;SDS011;51686;46.758;4.356;2023-04-07T13:15:54;12.27;;;7.25;;
65096;SDS011;51686;46.758;4.356;2023-04-07T13:18:41;16.10;;;7.93;;
65096;SDS011;51686;46.758;4.356;2023-04-07T13:21:28;13.82;;;7.97;;
65096;SDS011;51686;46.758;4.356;2023-04-07T13:24:31;14.15;;;7.57;;
65096;SDS011;51686;46.758;4.356;2023-04-07T13:27:18;12.90;;;7.30;;
65096;SDS011;51686;46.758;4.356;2023-04-07T13:30:05;12.65;;;7.15;;
65096;SDS011;51686;46.758;4.356;2023-04-07T13:32:52;15.38;;;7.70;;
65096;SDS011;51686;46.758;4.356;2023-04-07T13:35:40;13.63;;;7.25;;
65096;SDS011;51686;46.758;4.356;2023-04-07T13:38:26;13.20;;;7.22;;
65096;SDS011;51686;46.758;4.356;2023-04-07T13:41:13;12.98;;;7.32;;
65096;SDS011;51686;46.758;4.356;2023-04-07T13:44:00;13.40;;;7.50;;
65096;SDS011;51686;46.758;4.356;2023-04-07T13:46:47;12.40;;;7.15;;
65096;SDS011;51686;46.758;4.356;2023-04-07T13:49:35;12.52;;;7.07;;
65096;SDS011;51686;46.758;4.356;2023-04-07T13:52:21;11.77;;;6.78;;
65096;SDS011;51686;46.758;4.356;2023-04-07T13:55:08;12.38;;;6.68;;
65096;SDS011;51686;46.758;4.356;2023-04-07T13:57:56;11.38;;;6.22;;
65096;SDS011;51686;46.758;4.356;2023-04-07T14:00:42;13.05;;;6.07;;
65096;SDS011;51686;46.758;4.356;2023-04-07T14:03:29;12.90;;;6.57;;
65096;SDS011;51686;46.758;4.356;2023-04-07T14:06:17;12.13;;;6.22;;
65096;SDS011;51686;46.758;4.356;2023-04-07T14:09:07;12.43;;;6.00;;
65096;SDS011;51686;46.758;4.356;2023-04-07T14:11:54;11.63;;;6.00;;
65096;SDS011;51686;46.758;4.356;2023-04-07T14:14:42;11.95;;;6.28;;
65096;SDS011;51686;46.758;4.356;2023-04-07T14:17:29;11.55;;;6.22;;
65096;SDS011;51686;46.758;4.356;2023-04-07T14:20:16;12.45;;;6.75;;
65096;SDS011;51686;46.758;4.356;2023-04-07T14:23:03;12.40;;;7.22;;
65096;SDS011;51686;46.758;4.356;2023-04-07T14:25:50;12.60;;;6.55;;
65096;SDS011;51686;46.758;4.356;2023-04-07T14:28:37;12.43;;;6.88;;
65096;SDS011;51686;46.758;4.356;2023-04-07T14:31:24;11.65;;;6.40;;
65096;SDS011;51686;46.758;4.356;2023-04-07T14:34:11;11.30;;;6.30;;
65096;SDS011;51686;46.758;4.356;2023-04-07T14:36:58;11.63;;;6.15;;
65096;SDS011;51686;46.758;4.356;2023-04-07T14:39:45;11.95;;;6.15;;
65096;SDS011;51686;46.758;4.356;2023-04-07T14:42:47;11.43;;;6.57;;
65096;SDS011;51686;46.758;4.356;2023-04-07T14:45:34;9.93;;;5.10;;
65096;SDS011;51686;46.758;4.356;2023-04-07T14:48:21;9.82;;;5.25;;
65096;SDS011;51686;46.758;4.356;2023-04-07T14:51:09;10.68;;;6.15;;
65096;SDS011;51686;46.758;4.356;2023-04-07T14:53:58;10.60;;;5.10;;
65096;SDS011;51686;46.758;4.356;2023-04-07T14:56:44;12.20;;;5.85;;
65096;SDS011;51686;46.758;4.356;2023-04-07T14:59:31;11.13;;;5.20;;
65096;SDS011;51686;46.758;4.356;2023-04-07T15:02:18;11.70;;;5.93;;
65096;SDS011;51686;46.758;4.356;2023-04-07T15:05:05;10.60;;;5.05;;
65096;SDS011;51686;46.758;4.356;2023-04-07T15:07:53;10.20;;;5.35;;
65096;SDS011;51686;46.758;4.356;2023-04-07T15:10:40;10.73;;;5.05;;
65096;SDS011;51686;46.758;4.356;2023-04-07T15:13:27;9.77;;;4.95;;
65096;SDS011;51686;46.758;4.356;2023-04-07T15:16:14;9.60;;;4.85;;
65096;SDS011;51686;46.758;4.356;2023-04-07T15:19:01;10.20;;;4.68;;
65096;SDS011;51686;46.758;4.356;2023-04-07T15:21:48;9.50;;;4.85;;
65096;SDS011;51686;46.758;4.356;2023-04-07T15:24:35;9.18;;;5.03;;
65096;SDS011;51686;46.758;4.356;2023-04-07T15:27:22;9.95;;;4.70;;
65096;SDS011;51686;46.758;4.356;2023-04-07T15:30:09;10.05;;;5.00;;
65096;SDS011;51686;46.758;4.356;2023-04-07T15:33:03;9.98;;;4.53;;
65096;SDS011;51686;46.758;4.356;2023-04-07T15:35:50;10.00;;;4.78;;
65096;SDS011;51686;46.758;4.356;2023-04-07T15:38:37;10.73;;;4.90;;
65096;SDS011;51686;46.758;4.356;2023-04-07T15:41:24;9.63;;;5.22;;
65096;SDS011;51686;46.758;4.356;2023-04-07T15:44:15;9.45;;;4.63;;
65096;SDS011;51686;46.758;4.356;2023-04-07T15:47:03;9.85;;;4.85;;
65096;SDS011;51686;46.758;4.356;2023-04-07T15:49:50;9.68;;;4.30;;
65096;SDS011;51686;46.758;4.356;2023-04-07T15:52:37;9.00;;;4.53;;
65096;SDS011;51686;46.758;4.356;2023-04-07T15:55:24;9.38;;;4.28;;
65096;SDS011;51686;46.758;4.356;2023-04-07T15:58:11;8.95;;;4.22;;
65096;SDS011;51686;46.758;4.356;2023-04-07T16:00:58;9.60;;;4.10;;
65096;SDS011;51686;46.758;4.356;2023-04-07T16:03:45;10.88;;;4.25;;
65096;SDS011;51686;46.758;4.356;2023-04-07T16:06:33;9.85;;;4.38;;
65096;SDS011;51686;46.758;4.356;2023-04-07T16:09:20;9.05;;;4.50;;
65096;SDS011;51686;46.758;4.356;2023-04-07T16:12:07;9.35;;;4.70;;
65096;SDS011;51686;46.758;4.356;2023-04-07T16:14:53;9.40;;;4.50;;
65096;SDS011;51686;46.758;4.356;2023-04-07T16:17:41;9.07;;;4.13;;
65096;SDS011;51686;46.758;4.356;2023-04-07T16:20:29;8.90;;;4.10;;
65096;SDS011;51686;46.758;4.356;2023-04-07T16:23:16;9.48;;;4.22;;
65096;SDS011;51686;46.758;4.356;2023-04-07T16:26:03;8.48;;;3.67;;
65096;SDS011;51686;46.758;4.356;2023-04-07T16:28:50;9.60;;;4.43;;
65096;SDS011;51686;46.758;4.356;2023-04-07T16:31:36;9.32;;;4.47;;
65096;SDS011;51686;46.758;4.356;2023-04-07T16:34:24;8.15;;;4.00;;
65096;SDS011;51686;46.758;4.356;2023-04-07T16:37:11;8.50;;;4.18;;
65096;SDS011;51686;46.758;4.356;2023-04-07T16:39:58;9.05;;;4.22;;
65096;SDS011;51686;46.758;4.356;2023-04-07T16:42:45;8.68;;;4.03;;
65096;SDS011;51686;46.758;4.356;2023-04-07T16:45:32;8.75;;;3.72;;
65096;SDS011;51686;46.758;4.356;2023-04-07T16:48:19;8.00;;;3.80;;
65096;SDS011;51686;46.758;4.356;2023-04-07T16:51:06;8.13;;;3.90;;
65096;SDS011;51686;46.758;4.356;2023-04-07T16:53:53;7.97;;;3.90;;
65096;SDS011;51686;46.758;4.356;2023-04-07T16:56:40;8.50;;;3.80;;
65096;SDS011;51686;46.758;4.356;2023-04-07T16:59:27;7.75;;;3.38;;
65096;SDS011;51686;46.758;4.356;2023-04-07T17:02:14;7.82;;;3.72;;
65096;SDS011;51686;46.758;4.356;2023-04-07T17:05:04;7.88;;;3.60;;
65096;SDS011;51686;46.758;4.356;2023-04-07T17:07:51;7.85;;;3.58;;
65096;SDS011;51686;46.758;4.356;2023-04-07T17:10:39;7.75;;;3.55;;
65096;SDS011;51686;46.758;4.356;2023-04-07T17:13:26;8.27;;;3.65;;
65096;SDS011;51686;46.758;4.356;2023-04-07T17:16:13;8.82;;;3.85;;